Time;durP1;ratioP1;P1;durP2;ratioP2;P2;SDS_P1;SDS_P2;PMS_P1;PMS_P2;Temp;Humidity;BMP_temperature;BMP_pressure;BME280_temperature;BME280_humidity;BME280_pressure;Samples;Min_cycle;Max_cycle;Signal;HPM_P1;HPM_P2
2021/01/01 00:01:41;;;;;;;75.52;35.30;;;;;;;4.10;99.73;99456.41;1748268;81;21673;-68
2021/01/01 00:04:09;;;;;;;71.07;33.75;;;;;;;4.11;99.81;99448.14;1755137;81;23599;-66
2021/01/01 00:06:38;;;;;;;71.17;33.98;;;;;;;4.11;99.87;99450.74;1761344;81;21182;-66
2021/01/01 00:09:06;;;;;;;71.82;33.67;;;;;;;4.13;99.93;99450.27;1757234;81;21780;-66
2021/01/01 00:11:35;;;;;;;70.62;33.25;;;;;;;4.16;99.93;99452.80;1800408;79;21138;-66
2021/01/01 00:14:04;;;;;;;66.77;31.05;;;;;;;4.15;99.92;99449.80;1800436;79;21186;-67
2021/01/01 00:16:34;;;;;;;74.50;33.58;;;;;;;4.16;100.00;99447.16;1735983;82;22380;-67
2021/01/01 00:19:02;;;;;;;69.72;33.95;;;;;;;4.19;99.95;99441.02;1735778;82;22114;-66
2021/01/01 00:21:30;;;;;;;71.02;33.25;;;;;;;4.19;99.97;99442.33;1735452;82;21657;-65
2021/01/01 00:23:58;;;;;;;93.90;39.95;;;;;;;4.21;100.00;99435.34;1746738;81;21187;-66
2021/01/01 00:26:26;;;;;;;71.20;33.10;;;;;;;4.23;99.98;99440.04;1758661;81;21638;-66
2021/01/01 00:28:57;;;;;;;70.25;32.63;;;;;;;4.24;100.00;99435.26;1758718;81;21339;-67
2021/01/01 00:31:26;;;;;;;66.02;28.98;;;;;;;4.25;100.00;99438.27;1758997;81;26944;-67
2021/01/01 00:33:54;;;;;;;71.60;34.35;;;;;;;4.27;100.00;99431.72;1751477;81;21642;-66
2021/01/01 00:36:22;;;;;;;63.52;28.25;;;;;;;4.27;100.00;99426.05;1761527;80;21673;-66
2021/01/01 00:38:52;;;;;;;76.45;35.73;;;;;;;4.27;100.00;99423.45;1767744;81;21589;-67
2021/01/01 00:41:26;;;;;;;71.50;33.50;;;;;;;4.29;100.00;99419.06;1799206;79;21368;-66
2021/01/01 00:43:54;;;;;;;68.92;32.30;;;;;;;4.29;100.00;99415.61;1767909;81;21678;-66
2021/01/01 00:46:23;;;;;;;69.25;31.95;;;;;;;4.33;100.00;99410.28;1798849;79;21205;-65
2021/01/01 00:48:51;;;;;;;68.97;31.02;;;;;;;4.35;100.00;99412.41;1767763;81;21135;-66
2021/01/01 00:51:32;;;;;;;60.67;29.18;;;;;;;4.37;100.00;99405.42;1798886;79;21158;-67
2021/01/01 00:54:00;;;;;;;64.60;29.23;;;;;;;4.39;100.00;99411.45;1767954;81;22277;-66
2021/01/01 00:56:28;;;;;;;59.13;27.82;;;;;;;4.39;100.00;99417.97;1798713;79;21183;-67
2021/01/01 00:58:57;;;;;;;60.45;28.40;;;;;;;4.40;100.00;99417.06;1767635;81;21158;-67
2021/01/01 01:01:27;;;;;;;65.62;30.88;;;;;;;4.42;100.00;99406.61;1798884;79;21659;-66
2021/01/01 01:03:57;;;;;;;61.25;30.30;;;;;;;4.44;100.00;99410.05;1766406;81;21652;-68
2021/01/01 01:06:26;;;;;;;68.77;31.60;;;;;;;4.46;100.00;99406.08;1797746;79;22359;-68
2021/01/01 01:08:54;;;;;;;54.00;25.52;;;;;;;4.47;100.00;99401.30;1765861;81;21262;-68
2021/01/01 01:11:26;;;;;;;51.85;25.15;;;;;;;4.47;100.00;99401.30;1767893;81;21648;-68
2021/01/01 01:13:55;;;;;;;66.35;30.32;;;;;;;4.46;100.00;99394.34;1766038;81;21471;-68
2021/01/01 01:16:29;;;;;;;58.17;27.58;;;;;;;4.47;100.00;99390.86;1765904;81;21741;-68
2021/01/01 01:19:00;;;;;;;53.15;25.35;;;;;;;4.48;100.00;99384.73;1766012;81;21371;-67
2021/01/01 01:21:31;;;;;;;57.88;28.52;;;;;;;4.48;100.00;99392.56;1736896;82;22095;-67
2021/01/01 01:23:59;;;;;;;57.45;27.62;;;;;;;4.48;100.00;99386.89;1767856;81;21763;-67
2021/01/01 01:26:27;;;;;;;52.38;26.52;;;;;;;4.47;100.00;99379.98;1765822;81;21135;-67
2021/01/01 01:28:55;;;;;;;55.45;27.48;;;;;;;4.45;100.00;99380.91;1765891;81;21154;-69
2021/01/01 01:31:24;;;;;;;57.03;26.42;;;;;;;4.44;100.00;99385.28;1765805;81;21408;-67
2021/01/01 01:33:51;;;;;;;54.53;25.43;;;;;;;4.43;100.00;99376.18;1762268;79;21186;-68
2021/01/01 01:36:20;;;;;;;56.90;27.73;;;;;;;4.40;100.00;99375.36;1769127;81;21205;-68
2021/01/01 01:38:48;;;;;;;55.08;26.48;;;;;;;4.38;100.00;99374.98;1769351;81;21621;-69
2021/01/01 01:41:16;;;;;;;61.33;26.05;;;;;;;4.37;100.00;99364.12;1769195;81;21146;-69
2021/01/01 01:43:43;;;;;;;57.80;24.55;;;;;;;4.34;100.00;99359.85;1769395;81;22321;-69
2021/01/01 01:46:12;;;;;;;63.78;27.42;;;;;;;4.34;100.00;99358.55;1769259;81;21589;-67
2021/01/01 01:48:39;;;;;;;67.53;27.80;;;;;;;4.34;100.00;99367.67;1743166;81;22257;-67
2021/01/01 01:51:08;;;;;;;61.35;26.30;;;;;;;4.32;100.00;99366.84;1719564;82;21154;-67
2021/01/01 01:53:46;;;;;;;63.40;28.35;;;;;;;4.29;100.00;99356.50;1738581;82;21111;-67
2021/01/01 01:56:13;;;;;;;69.42;31.02;;;;;;;4.31;100.00;99366.91;1738607;82;21286;-67
2021/01/01 01:58:41;;;;;;;67.20;30.95;;;;;;;4.28;100.00;99362.63;1738507;82;21131;-69
2021/01/01 02:01:11;;;;;;;68.02;31.10;;;;;;;4.26;100.00;99360.50;1738475;82;21143;-68
2021/01/01 02:03:40;;;;;;;61.00;26.85;;;;;;;4.27;100.00;99353.08;1738732;82;26724;-67
2021/01/01 02:06:09;;;;;;;68.97;30.75;;;;;;;4.29;100.00;99357.81;1738607;82;21603;-67
2021/01/01 02:08:37;;;;;;;60.65;26.93;;;;;;;4.28;100.00;99353.50;1737562;82;21382;-67
2021/01/01 02:11:05;;;;;;;72.97;30.70;;;;;;;4.29;100.00;99349.14;1763303;81;21158;-68
2021/01/01 02:13:34;;;;;;;66.10;30.35;;;;;;;4.31;100.00;99346.05;1763510;81;22099;-67
2021/01/01 02:16:04;;;;;;;81.87;33.55;;;;;;;4.31;100.00;99345.59;1731905;81;21194;-68
2021/01/01 02:18:37;;;;;;;72.17;32.45;;;;;;;4.34;100.00;99336.39;1760913;81;21190;-66
2021/01/01 02:21:11;;;;;;;71.15;31.30;;;;;;;4.36;100.00;99330.70;1763258;81;21403;-67
2021/01/01 02:23:38;;;;;;;81.72;34.75;;;;;;;4.36;100.00;99337.21;1763380;81;21150;-66
2021/01/01 02:26:07;;;;;;;79.15;34.08;;;;;;;4.37;100.00;99341.55;1763218;81;21180;-68
2021/01/01 02:28:35;;;;;;;63.73;27.35;;;;;;;4.41;100.00;99332.73;1763156;81;21182;-65
2021/01/01 02:31:04;;;;;;;81.70;35.03;;;;;;;4.39;100.00;99335.86;1763442;81;21158;-67
2021/01/01 02:33:32;;;;;;;72.35;32.55;;;;;;;4.38;100.00;99330.22;1763337;81;21627;-66
2021/01/01 02:36:01;;;;;;;72.40;31.80;;;;;;;4.38;100.00;99337.19;1763603;79;21171;-68
2021/01/01 02:38:29;;;;;;;81.17;36.28;;;;;;;4.39;100.00;99327.16;1760325;80;21587;-67
2021/01/01 02:40:57;;;;;;;85.15;37.93;;;;;;;4.39;100.00;99324.55;1787462;80;21123;-67
2021/01/01 02:43:24;;;;;;;85.05;36.03;;;;;;;4.37;100.00;99328.52;1756373;81;21661;-69
2021/01/01 02:45:52;;;;;;;67.35;30.65;;;;;;;4.36;100.00;99325.94;1776143;80;21285;-67
2021/01/01 02:48:21;;;;;;;84.45;35.50;;;;;;;4.35;100.00;99317.27;1763031;81;21217;-66
2021/01/01 02:50:50;;;;;;;82.27;35.73;;;;;;;4.35;100.00;99324.23;1763505;81;21153;-66
2021/01/01 02:53:18;;;;;;;81.10;33.83;;;;;;;4.32;100.00;99317.31;1763119;81;21162;-67
2021/01/01 02:55:48;;;;;;;87.97;36.38;;;;;;;4.30;100.00;99308.71;1763305;81;21580;-66
2021/01/01 02:58:16;;;;;;;77.50;31.42;;;;;;;4.28;100.00;99307.00;1763083;81;21357;-66
2021/01/01 03:00:48;;;;;;;92.82;40.55;;;;;;;4.26;100.00;99304.45;1763149;81;21257;-65
2021/01/01 03:03:17;;;;;;;98.92;42.75;;;;;;;4.27;100.00;99300.09;1762938;81;21181;-66
2021/01/01 03:05:47;;;;;;;101.33;39.95;;;;;;;4.27;100.00;99296.19;1763074;81;21664;-66
2021/01/01 03:08:15;;;;;;;90.70;40.95;;;;;;;4.24;100.00;99293.21;1763342;81;26624;-68
2021/01/01 03:10:43;;;;;;;79.87;35.00;;;;;;;4.29;100.00;99291.80;1763227;81;21391;-65
2021/01/01 03:13:10;;;;;;;108.50;45.08;;;;;;;4.29;100.00;99287.43;1763100;81;21174;-66
2021/01/01 03:15:39;;;;;;;112.42;45.03;;;;;;;4.28;100.00;99283.13;1763368;79;21597;-68
2021/01/01 03:18:07;;;;;;;104.63;41.20;;;;;;;4.32;100.00;99275.61;1763219;81;21589;-66
2021/01/01 03:20:36;;;;;;;99.90;41.02;;;;;;;4.32;100.00;99274.31;1763210;81;21206;-67
2021/01/01 03:23:04;;;;;;;95.77;40.25;;;;;;;4.35;100.00;99278.16;1763297;81;22268;-69
2021/01/01 03:25:32;;;;;;;93.05;40.55;;;;;;;4.37;100.00;99271.16;1763241;81;21744;-66
2021/01/01 03:28:00;;;;;;;100.60;44.77;;;;;;;4.39;100.00;99277.20;1763182;81;21716;-66
2021/01/01 03:30:27;;;;;;;108.85;46.18;;;;;;;4.41;100.00;99280.59;1763300;81;21633;-67
2021/01/01 03:32:55;;;;;;;88.03;39.75;;;;;;;4.44;100.00;99268.38;1763203;81;21150;-66
2021/01/01 03:35:26;;;;;;;99.32;41.20;;;;;;;4.45;100.00;99263.59;1763130;81;21292;-67
2021/01/01 03:37:53;;;;;;;102.97;40.60;;;;;;;4.48;100.00;99262.20;1763069;81;21630;-66
2021/01/01 03:40:22;;;;;;;93.27;40.45;;;;;;;4.51;100.00;99263.41;1763357;81;21175;-68
2021/01/01 03:42:50;;;;;;;99.35;41.73;;;;;;;4.50;100.00;99258.65;1763262;81;21193;-67
2021/01/01 03:45:18;;;;;;;102.65;43.92;;;;;;;4.52;100.00;99256.02;1763032;81;21179;-68
2021/01/01 03:47:45;;;;;;;96.15;43.48;;;;;;;4.53;100.00;99252.50;1763160;81;22154;-68
2021/01/01 03:50:14;;;;;;;99.45;45.20;;;;;;;4.56;100.00;99251.13;1763022;81;21247;-67
2021/01/01 03:52:41;;;;;;;98.72;44.03;;;;;;;4.55;100.00;99246.34;1763165;81;22199;-67
2021/01/01 03:55:10;;;;;;;100.10;42.80;;;;;;;4.51;100.00;99243.86;1763138;81;21610;-67
2021/01/01 03:57:40;;;;;;;83.20;38.28;;;;;;;4.54;100.00;99246.41;1763234;80;21184;-66
2021/01/01 04:00:10;;;;;;;83.85;40.65;;;;;;;4.52;100.00;99256.02;1763295;81;22286;-66
2021/01/01 04:02:40;;;;;;;84.00;39.00;;;;;;;4.52;100.00;99241.67;1763142;81;21183;-66
2021/01/01 04:05:10;;;;;;;90.75;41.08;;;;;;;4.51;100.00;99236.03;1763251;81;21146;-67
2021/01/01 04:07:38;;;;;;;71.33;35.25;;;;;;;4.52;100.00;99232.55;1763352;80;21166;-67
2021/01/01 04:10:07;;;;;;;79.35;38.50;;;;;;;4.53;100.00;99235.55;1776739;80;22118;-67
2021/01/01 04:12:35;;;;;;;85.92;39.88;;;;;;;4.55;100.00;99250.70;1791415;80;21495;-67
2021/01/01 04:15:05;;;;;;;78.75;36.23;;;;;;;4.55;100.00;99250.70;1791367;80;21163;-67
2021/01/01 04:17:34;;;;;;;80.28;39.18;;;;;;;4.57;99.84;99245.00;1791421;80;21299;-67
2021/01/01 04:20:03;;;;;;;74.80;38.67;;;;;;;4.60;99.68;99233.17;1791335;80;21179;-67
2021/01/01 04:22:31;;;;;;;69.17;33.05;;;;;;;4.60;99.68;99233.17;1791264;80;21122;-66
2021/01/01 04:24:59;;;;;;;82.08;39.78;;;;;;;4.60;99.23;99230.57;1771822;81;21618;-67
2021/01/01 04:27:27;;;;;;;76.12;38.67;;;;;;;4.58;98.90;99221.96;1771804;81;21163;-68
2021/01/01 04:29:55;;;;;;;78.00;35.50;;;;;;;4.60;98.94;99220.14;1791497;80;21617;-67
2021/01/01 04:32:23;;;;;;;68.05;31.97;;;;;;;4.58;98.61;99216.29;1791329;80;21129;-66
2021/01/01 04:34:51;;;;;;;74.70;36.93;;;;;;;4.56;98.50;99216.77;1791475;80;21574;-67
2021/01/01 04:37:18;;;;;;;67.47;33.10;;;;;;;4.55;97.99;99202.47;1791357;80;21442;-66
2021/01/01 04:39:47;;;;;;;80.03;38.63;;;;;;;4.54;98.14;99208.59;1791402;80;21166;-67
2021/01/01 04:42:15;;;;;;;76.28;36.85;;;;;;;4.52;98.02;99216.90;1791349;80;21590;-66
2021/01/01 04:44:43;;;;;;;67.20;32.75;;;;;;;4.53;97.75;99210.78;1791482;80;21166;-66
2021/01/01 04:47:13;;;;;;;65.37;32.80;;;;;;;4.49;97.53;99216.53;1759504;81;21162;-66
2021/01/01 04:49:41;;;;;;;57.25;29.23;;;;;;;4.49;97.47;99210.48;1729579;82;21424;-66
2021/01/01 04:52:09;;;;;;;69.05;33.83;;;;;;;4.45;97.24;99218.81;1715814;82;21572;-66
2021/01/01 04:54:38;;;;;;;66.80;33.48;;;;;;;4.45;97.24;99218.81;1729466;83;21209;-66
2021/01/01 04:57:05;;;;;;;69.90;34.60;;;;;;;4.40;97.19;99220.23;1740694;82;21615;-67
2021/01/01 04:59:34;;;;;;;59.98;28.38;;;;;;;4.44;97.27;99218.84;1703074;83;21228;-66
2021/01/01 05:02:02;;;;;;;63.33;30.12;;;;;;;4.39;97.16;99214.63;1740810;82;21191;-67
2021/01/01 05:04:31;;;;;;;68.52;32.83;;;;;;;4.36;97.14;99218.60;1729404;83;21511;-67
2021/01/01 05:07:00;;;;;;;66.53;32.60;;;;;;;4.32;97.14;99190.05;1740727;82;21136;-65
2021/01/01 05:09:28;;;;;;;70.32;34.78;;;;;;;4.34;97.22;99194.33;1728830;81;21636;-66
2021/01/01 05:12:07;;;;;;;62.70;32.83;;;;;;;4.34;97.24;99174.77;1733819;82;22151;-66
2021/01/01 05:14:35;;;;;;;56.42;29.55;;;;;;;4.37;97.27;99174.71;1792266;80;21332;-67
2021/01/01 05:17:05;;;;;;;67.50;32.15;;;;;;;4.38;97.09;99186.84;1792280;80;21146;-66
2021/01/01 05:19:42;;;;;;;53.63;26.00;;;;;;;4.38;97.06;99197.27;1792480;80;21610;-68
2021/01/01 05:22:12;;;;;;;61.02;29.72;;;;;;;4.36;96.95;99197.75;1792169;80;21232;-66
2021/01/01 05:24:45;;;;;;;59.10;31.42;;;;;;;4.36;96.90;99177.35;1792466;80;21114;-66
2021/01/01 05:27:15;;;;;;;61.45;32.50;;;;;;;4.29;97.03;99181.87;1792148;80;21353;-67
2021/01/01 05:29:54;;;;;;;60.00;30.72;;;;;;;4.29;97.03;99181.87;1792309;80;21118;-67
2021/01/01 05:32:25;;;;;;;61.95;31.45;;;;;;;4.32;97.04;99166.59;1792124;80;21185;-67
2021/01/01 05:34:53;;;;;;;54.85;26.80;;;;;;;4.32;97.08;99168.74;1792115;80;21181;-67
2021/01/01 05:37:34;;;;;;;56.55;29.18;;;;;;;4.30;97.13;99165.35;1792055;80;21594;-68
2021/01/01 05:40:08;;;;;;;53.35;28.17;;;;;;;4.30;97.25;99166.66;1792251;80;21614;-68
2021/01/01 05:42:37;;;;;;;55.20;28.45;;;;;;;4.30;97.26;99162.74;1792167;80;21320;-69
2021/01/01 05:45:19;;;;;;;52.73;27.67;;;;;;;4.31;97.26;99174.87;1792841;79;21319;-69
2021/01/01 05:48:07;;;;;;;53.02;26.77;;;;;;;4.32;97.22;99167.89;1797245;79;21545;-68
2021/01/01 05:50:35;;;;;;;54.90;26.37;;;;;;;4.32;97.20;99171.34;1770770;79;21211;-68
2021/01/01 05:53:19;;;;;;;57.58;30.68;;;;;;;4.29;97.23;99173.20;1797271;79;21586;-68
2021/01/01 05:55:47;;;;;;;47.45;25.25;;;;;;;4.26;97.37;99181.11;1797257;79;21621;-67
2021/01/01 05:58:24;;;;;;;52.75;28.50;;;;;;;4.28;97.26;99174.96;1797324;79;21692;-67
2021/01/01 06:00:55;;;;;;;56.75;30.70;;;;;;;4.27;97.12;99166.72;1797317;79;21637;-67
2021/01/01 06:03:27;;;;;;;53.00;27.67;;;;;;;4.28;97.07;99156.71;1796551;79;21222;-66
2021/01/01 06:05:56;;;;;;;56.60;29.30;;;;;;;4.27;97.20;99152.83;1802468;78;21354;-66
2021/01/01 06:08:28;;;;;;;55.80;29.42;;;;;;;4.27;97.20;99152.83;1813936;78;21226;-66
2021/01/01 06:12:38;;;;;;;57.20;30.07;;;;;;;4.32;96.81;99150.50;1775434;78;23251;-65
2021/01/01 06:15:09;;;;;;;61.02;29.30;;;;;;;4.27;96.81;99158.89;1723448;82;21562;-65
2021/01/01 06:17:48;;;;;;;55.20;26.33;;;;;;;4.26;96.61;99163.72;1709855;83;21412;-65
2021/01/01 06:20:20;;;;;;;61.18;29.92;;;;;;;4.23;96.45;99155.11;1718402;82;21610;-66
2021/01/01 06:23:01;;;;;;;58.63;30.70;;;;;;;4.23;96.45;99155.11;1718390;83;21190;-66
2021/01/01 06:25:33;;;;;;;61.65;32.10;;;;;;;4.21;96.49;99157.78;1718316;83;21305;-65
2021/01/01 06:28:03;;;;;;;55.00;28.77;;;;;;;4.21;96.60;99153.88;1690885;83;21175;-66
2021/01/01 06:30:32;;;;;;;56.28;28.07;;;;;;;4.22;96.54;99159.47;1718283;83;21570;-65
2021/01/01 06:33:07;;;;;;;60.63;30.80;;;;;;;4.23;96.54;99160.32;1673575;84;21151;-65
2021/01/01 06:35:42;;;;;;;50.08;27.35;;;;;;;4.25;96.53;99163.75;1688049;85;21610;-66
2021/01/01 06:38:10;;;;;;;56.80;29.30;;;;;;;4.24;96.40;99156.38;1688127;85;21673;-66
2021/01/01 06:40:38;;;;;;;60.12;32.10;;;;;;;4.26;96.37;99153.29;1687980;85;21207;-66
2021/01/01 06:43:07;;;;;;;60.73;32.10;;;;;;;4.26;96.33;99150.69;1687995;85;21223;-66
2021/01/01 06:45:45;;;;;;;64.80;31.77;;;;;;;4.25;96.55;99148.95;1698386;83;21199;-66
2021/01/01 06:48:31;;;;;;;56.08;30.55;;;;;;;4.27;96.36;99152.38;1718249;83;21138;-66
2021/01/01 06:50:58;;;;;;;51.23;24.98;;;;;;;4.28;96.34;99141.08;1700637;83;21700;-65
2021/01/01 06:53:33;;;;;;;52.20;26.67;;;;;;;4.31;96.35;99151.41;1709813;82;21749;-66
2021/01/01 06:56:11;;;;;;;49.53;24.65;;;;;;;4.34;96.38;99151.31;1717733;83;21382;-66
2021/01/01 06:58:39;;;;;;;52.95;27.73;;;;;;;4.37;96.15;99151.67;1717803;83;21178;-66
2021/01/01 07:01:17;;;;;;;61.70;30.45;;;;;;;4.37;96.15;99151.67;1714784;82;21220;-65
2021/01/01 07:03:45;;;;;;;58.13;28.85;;;;;;;4.38;96.00;99150.34;1696706;81;21096;-63
2021/01/01 07:06:18;;;;;;;51.68;26.40;;;;;;;4.39;95.75;99141.64;1654479;85;21681;-64
2021/01/01 07:08:46;;;;;;;56.40;27.25;;;;;;;4.40;95.75;99157.67;1654333;84;22154;-64
2021/01/01 07:11:23;;;;;;;54.10;27.62;;;;;;;4.40;95.75;99153.77;1665896;84;21288;-64
2021/01/01 07:13:52;;;;;;;51.58;26.25;;;;;;;4.43;95.71;99162.41;1651390;85;21645;-64
2021/01/01 07:16:22;;;;;;;56.87;27.50;;;;;;;4.41;95.61;99148.94;1652446;86;21167;-65
2021/01/01 07:18:52;;;;;;;47.27;25.23;;;;;;;4.44;95.50;99157.16;1651609;86;21195;-64
2021/01/01 07:21:20;;;;;;;56.33;27.73;;;;;;;4.46;95.52;99157.94;1652747;86;21369;-63
2021/01/01 07:23:48;;;;;;;52.38;28.02;;;;;;;4.45;95.52;99150.18;1652701;86;21223;-64
2021/01/01 07:26:16;;;;;;;54.60;25.70;;;;;;;4.46;95.55;99147.97;1656847;86;21698;-64
2021/01/01 07:28:46;;;;;;;51.98;24.32;;;;;;;4.48;95.57;99157.91;1648873;86;21665;-64
2021/01/01 07:31:17;;;;;;;48.83;26.65;;;;;;;4.48;95.67;99155.30;1643220;84;21218;-64
2021/01/01 07:33:45;;;;;;;;;;;;;;;4.51;95.79;99156.08;1654245;86;21264;-64
2021/01/01 07:36:12;;;;;;;56.73;26.68;;;;;;;4.50;96.16;99158.72;1637379;86;20563;-66
2021/01/01 07:38:43;;;;;;;45.12;20.92;;;;;;;4.51;96.33;99168.23;1647735;86;21641;-63
2021/01/01 07:41:11;;;;;;;52.13;24.80;;;;;;;4.51;96.62;99165.63;1644497;84;21190;-63
2021/01/01 07:43:39;;;;;;;58.38;27.65;;;;;;;4.48;96.85;99164.42;1644852;86;21313;-64
2021/01/01 07:46:08;;;;;;;59.05;27.77;;;;;;;4.50;97.06;99171.76;1653920;84;21285;-65
2021/01/01 07:48:37;;;;;;;57.33;27.65;;;;;;;4.51;97.07;99168.23;1649035;86;21234;-63
2021/01/01 07:51:09;;;;;;;50.20;25.92;;;;;;;4.49;97.17;99159.18;1645429;86;21689;-63
2021/01/01 07:53:37;;;;;;;58.52;27.40;;;;;;;4.52;97.06;99164.30;1658739;80;21281;-76
2021/01/01 07:56:08;;;;;;;57.98;27.27;;;;;;;4.52;97.21;99161.69;1704073;83;21182;-78
2021/01/01 07:58:36;;;;;;;54.27;27.60;;;;;;;4.50;97.36;99171.76;1701417;83;22092;-78
2021/01/01 08:01:08;;;;;;;52.25;25.92;;;;;;;4.50;97.62;99170.00;1704835;83;21195;-77
2021/01/01 08:03:37;;;;;;;53.85;27.02;;;;;;;4.50;97.62;99170.00;1705511;83;21642;-76
2021/01/01 08:06:07;;;;;;;52.83;24.23;;;;;;;4.53;97.48;99172.55;1694229;83;21187;-77
2021/01/01 08:08:34;;;;;;;56.63;25.77;;;;;;;4.51;97.62;99174.76;1671317;84;21210;-77
2021/01/01 08:11:02;;;;;;;50.17;26.00;;;;;;;4.49;97.77;99168.76;1658382;85;21898;-78
2021/01/01 08:13:32;;;;;;;59.70;28.00;;;;;;;4.50;98.13;99174.37;1667617;84;21631;-76
2021/01/01 08:16:12;;;;;;;46.92;25.43;;;;;;;4.53;98.16;99171.66;1685592;85;21226;-77
2021/01/01 08:18:40;;;;;;;55.85;27.00;;;;;;;4.55;98.25;99164.66;1677233;85;21124;-77
2021/01/01 08:21:08;;;;;;;52.17;24.72;;;;;;;4.57;98.39;99171.99;1698155;83;21625;-76
2021/01/01 08:24:07;;;;;;;58.95;25.37;;;;;;;4.58;98.76;99167.20;1689543;84;22426;-78
2021/01/01 08:26:38;;;;;;;43.60;20.97;;;;;;;4.62;99.07;99174.02;1686083;85;22198;-76
2021/01/01 08:29:08;;;;;;;47.50;22.05;;;;;;;4.66;99.29;99185.23;1660789;83;21179;-78
2021/01/01 08:31:36;;;;;;;43.80;22.58;;;;;;;4.70;99.53;99183.80;1686033;85;21179;-76
2021/01/01 08:34:04;;;;;;;45.88;22.98;;;;;;;4.76;99.77;99175.81;1685906;84;21462;-76
2021/01/01 08:36:34;;;;;;;45.65;22.85;;;;;;;4.79;99.88;99174.41;1685889;85;22197;-74
2021/01/01 08:39:10;;;;;;;37.08;19.95;;;;;;;4.88;100.00;99186.34;1685873;83;21155;-76
2021/01/01 08:41:44;;;;;;;43.30;19.75;;;;;;;4.95;100.00;99185.71;1669568;84;21222;-78
2021/01/01 08:44:24;;;;;;;39.63;21.47;;;;;;;5.05;100.00;99191.05;1855737;76;25168;-75
2021/01/01 08:46:58;;;;;;;28.95;12.60;;;;;;;5.08;100.00;99182.27;1815496;78;21179;-76
2021/01/01 08:49:32;;;;;;;42.33;20.12;;;;;;;5.16;100.00;99203.80;1813869;79;21364;-76
2021/01/01 08:52:10;;;;;;;46.20;20.15;;;;;;;5.22;100.00;99191.42;1813943;79;21167;-75
2021/01/01 08:54:40;;;;;;;34.65;17.90;;;;;;;5.28;99.91;99194.73;1814060;78;21572;-77
2021/01/01 08:57:07;;;;;;;35.10;19.02;;;;;;;5.33;99.81;99204.58;1757230;79;21579;-75
2021/01/01 08:59:37;;;;;;;31.77;16.25;;;;;;;5.38;99.90;99199.64;1814092;79;21557;-76
2021/01/01 09:02:10;;;;;;;31.30;16.67;;;;;;;5.46;99.83;99204.62;1779456;78;21439;-75
2021/01/01 09:04:40;;;;;;;31.17;16.73;;;;;;;5.53;99.73;99198.30;1787076;80;21126;-76
2021/01/01 09:07:07;;;;;;;33.10;18.48;;;;;;;5.60;99.68;99197.20;1816010;76;21574;-66
2021/01/01 09:09:35;;;;;;;31.90;16.80;;;;;;;5.64;99.72;99197.97;1715344;79;21203;-64
2021/01/01 09:12:18;;;;;;;31.17;16.60;;;;;;;5.71;99.64;99203.86;1795978;79;21190;-67
2021/01/01 09:14:55;;;;;;;41.20;19.17;;;;;;;5.78;99.57;99206.67;1833629;78;22116;-65
2021/01/01 09:17:32;;;;;;;32.05;16.87;;;;;;;5.82;99.52;99213.48;1833423;77;21172;-65
2021/01/01 09:20:08;;;;;;;44.00;18.70;;;;;;;5.90;99.42;99203.65;1832912;78;21195;-64
2021/01/01 09:22:38;;;;;;;36.55;17.85;;;;;;;6.01;99.49;99209.41;1763325;75;21234;-66
2021/01/01 09:25:23;;;;;;;31.95;16.73;;;;;;;6.11;99.50;99205.19;1734763;82;21203;-69
2021/01/01 09:27:53;;;;;;;33.92;17.75;;;;;;;6.20;99.43;99217.95;1734825;82;21194;-69
2021/01/01 09:30:25;;;;;;;30.30;16.93;;;;;;;6.27;99.17;99212.91;1735838;82;21701;-69
2021/01/01 09:32:58;;;;;;;31.48;16.10;;;;;;;6.32;98.96;99203.59;1735852;82;21182;-69
2021/01/01 09:35:28;;;;;;;23.87;14.70;;;;;;;6.37;98.81;99212.12;1735520;82;21230;-68
2021/01/01 09:38:00;;;;;;;26.45;14.87;;;;;;;6.43;98.77;99220.62;1735640;82;21194;-69
2021/01/01 09:40:34;;;;;;;29.55;17.23;;;;;;;6.46;98.64;99219.20;1736221;82;22334;-67
2021/01/01 09:43:04;;;;;;;30.25;15.83;;;;;;;6.54;98.65;99222.03;1722437;82;21629;-68
2021/01/01 09:45:35;;;;;;;30.97;16.15;;;;;;;6.58;98.66;99222.30;1736618;82;21186;-69
2021/01/01 09:48:06;;;;;;;27.52;15.20;;;;;;;6.62;98.64;99223.91;1736695;82;21138;-69
2021/01/01 09:50:34;;;;;;;;;;;;;;;6.66;98.66;99222.89;1709828;82;21315;-69
2021/01/01 09:53:02;;;;;;;28.62;14.30;;;;;;;6.72;98.61;99221.38;1734619;82;21340;-68
2021/01/01 09:55:31;;;;;;;27.35;15.10;;;;;;;6.75;98.61;99222.56;1733083;82;21207;-69
2021/01/01 09:57:59;;;;;;;28.70;14.45;;;;;;;6.81;98.52;99232.83;1732946;82;21187;-68
2021/01/01 10:00:28;;;;;;;24.87;12.90;;;;;;;6.85;98.40;99229.16;1732084;82;21198;-69
2021/01/01 10:02:56;;;;;;;21.77;12.25;;;;;;;6.90;98.35;99222.02;1733334;82;21452;-68
2021/01/01 10:05:25;;;;;;;23.90;12.88;;;;;;;6.96;98.26;99222.70;1733287;82;21379;-68
2021/01/01 10:07:53;;;;;;;25.12;13.90;;;;;;;6.99;98.20;99223.42;1733040;82;21178;-67
2021/01/01 10:10:21;;;;;;;23.73;13.88;;;;;;;7.03;98.00;99216.33;1732952;82;21178;-68
2021/01/01 10:12:48;;;;;;;26.48;13.90;;;;;;;7.09;97.90;99220.03;1733009;82;21183;-68
2021/01/01 10:15:16;;;;;;;23.80;12.82;;;;;;;7.12;97.77;99219.91;1733348;82;21162;-67
2021/01/01 10:17:43;;;;;;;26.15;14.00;;;;;;;7.16;97.75;99228.05;1723477;82;22358;-68
2021/01/01 10:20:12;;;;;;;28.95;13.30;;;;;;;7.16;97.54;99224.13;1727671;82;21629;-68
2021/01/01 10:22:40;;;;;;;24.52;13.13;;;;;;;7.21;97.51;99228.73;1732332;81;21617;-69
2021/01/01 10:25:09;;;;;;;24.43;13.43;;;;;;;7.22;97.44;99231.73;1725706;82;21177;-69
2021/01/01 10:27:37;;;;;;;22.73;13.60;;;;;;;7.21;97.38;99231.34;1727035;81;21181;-68
2021/01/01 10:30:08;;;;;;;25.20;12.80;;;;;;;7.23;97.34;99233.45;1726878;83;21452;-69
2021/01/01 10:32:35;;;;;;;24.95;14.25;;;;;;;7.25;97.32;99232.95;1727178;83;21217;-68
2021/01/01 10:35:08;;;;;;;25.50;13.75;;;;;;;7.27;97.38;99235.05;1700211;83;21142;-69
2021/01/01 10:37:35;;;;;;;23.17;13.80;;;;;;;7.24;97.47;99237.77;1727220;81;21159;-66
2021/01/01 10:40:05;;;;;;;22.30;13.05;;;;;;;7.23;97.53;99238.70;1726833;83;21201;-65
2021/01/01 10:42:33;;;;;;;30.25;14.90;;;;;;;7.23;97.60;99236.08;1731233;82;21214;-68
2021/01/01 10:45:04;;;;;;;24.27;14.20;;;;;;;7.24;97.70;99237.77;1739403;78;21312;-65
2021/01/01 10:47:32;;;;;;;21.42;12.95;;;;;;;7.25;97.87;99237.34;1770995;79;21179;-67
2021/01/01 10:49:59;;;;;;;23.85;12.07;;;;;;;7.24;97.95;99232.53;1784393;79;21163;-66
2021/01/01 10:52:27;;;;;;;20.65;12.45;;;;;;;7.27;97.98;99242.03;1795969;79;21116;-66
2021/01/01 10:54:55;;;;;;;23.27;12.28;;;;;;;7.26;97.93;99243.80;1796092;79;22827;-65
2021/01/01 10:57:24;;;;;;;22.93;13.45;;;;;;;7.25;97.93;99253.90;1783960;79;21189;-65
2021/01/01 10:59:52;;;;;;;21.77;13.05;;;;;;;7.23;97.97;99249.17;1772748;78;21170;-69
2021/01/01 11:02:19;;;;;;;24.37;13.53;;;;;;;7.22;98.04;99248.75;1737520;81;21207;-68
2021/01/01 11:04:47;;;;;;;23.67;12.68;;;;;;;7.22;98.08;99251.38;1754450;81;21165;-67
2021/01/01 11:07:14;;;;;;;24.60;13.58;;;;;;;7.23;98.09;99246.55;1732893;82;21351;-68
2021/01/01 11:09:43;;;;;;;22.93;12.88;;;;;;;7.25;98.17;99252.59;1731733;81;21228;-67
2021/01/01 11:12:11;;;;;;;22.27;12.70;;;;;;;7.27;98.19;99258.62;1706750;82;21583;-68
2021/01/01 12:25:07;;;;;;;20.43;12.00;;;;;;;7.99;96.82;99295.14;1776108;79;21161;-65
2021/01/01 12:27:35;;;;;;;17.60;11.97;;;;;;;8.02;96.85;99304.66;1714691;83;26237;-66
2021/01/01 12:30:09;;;;;;;19.12;12.78;;;;;;;8.05;96.93;99303.67;1666841;86;21621;-65
2021/01/01 12:32:39;;;;;;;25.45;13.53;;;;;;;8.05;96.83;99304.55;1689152;85;21146;-66
2021/01/01 12:35:09;;;;;;;18.02;11.95;;;;;;;8.07;96.62;99305.31;1714426;83;21221;-66
2021/01/01 12:37:38;;;;;;;19.52;12.35;;;;;;;8.08;96.52;99304.42;1714074;83;21205;-65
2021/01/01 12:40:08;;;;;;;26.93;14.50;;;;;;;8.07;96.42;99308.41;1714529;83;22269;-65
2021/01/01 12:42:36;;;;;;;18.62;11.78;;;;;;;8.02;96.18;99309.89;1714380;83;21213;-66
2021/01/01 12:45:06;;;;;;;18.85;11.75;;;;;;;8.03;96.22;99312.05;1714166;83;21188;-66
2021/01/01 12:47:34;;;;;;;18.15;11.60;;;;;;;8.01;96.20;99312.60;1711600;83;21658;-66